sensor_id;sensor_type;location;lat;lon;timestamp;temperature;humidity
16116;DHT22;8162;47.104;15.432;2024-03-22T00:00:53;10.20;69.00
16116;DHT22;8162;47.104;15.432;2024-03-22T00:03:53;10.20;68.90
16116;DHT22;8162;47.104;15.432;2024-03-22T00:06:54;10.20;68.00
16116;DHT22;8162;47.104;15.432;2024-03-22T00:09:55;10.20;68.50
16116;DHT22;8162;47.104;15.432;2024-03-22T00:12:55;10.20;68.60
16116;DHT22;8162;47.104;15.432;2024-03-22T00:15:56;10.30;66.70
16116;DHT22;8162;47.104;15.432;2024-03-22T00:18:57;10.30;67.80
16116;DHT22;8162;47.104;15.432;2024-03-22T00:21:57;10.30;67.30
16116;DHT22;8162;47.104;15.432;2024-03-22T00:32:52;10.50;65.80
16116;DHT22;8162;47.104;15.432;2024-03-22T00:35:53;10.50;65.70
16116;DHT22;8162;47.104;15.432;2024-03-22T00:38:53;10.50;66.30
16116;DHT22;8162;47.104;15.432;2024-03-22T00:41:54;10.50;66.50
16116;DHT22;8162;47.104;15.432;2024-03-22T00:44:55;10.50;65.60
16116;DHT22;8162;47.104;15.432;2024-03-22T00:47:57;10.50;66.50
16116;DHT22;8162;47.104;15.432;2024-03-22T00:50:58;10.50;66.60
16116;DHT22;8162;47.104;15.432;2024-03-22T00:53:58;10.40;66.90
16116;DHT22;8162;47.104;15.432;2024-03-22T00:56:59;10.40;66.40
16116;DHT22;8162;47.104;15.432;2024-03-22T01:00:00;10.40;67.00
16116;DHT22;8162;47.104;15.432;2024-03-22T01:03:00;10.40;67.40
16116;DHT22;8162;47.104;15.432;2024-03-22T01:06:01;10.40;67.60
16116;DHT22;8162;47.104;15.432;2024-03-22T01:09:02;10.40;67.90
16116;DHT22;8162;47.104;15.432;2024-03-22T01:12:03;10.40;67.50
16116;DHT22;8162;47.104;15.432;2024-03-22T01:15:06;10.40;67.30
16116;DHT22;8162;47.104;15.432;2024-03-22T01:18:07;10.40;67.50
16116;DHT22;8162;47.104;15.432;2024-03-22T01:21:08;10.40;67.60
16116;DHT22;8162;47.104;15.432;2024-03-22T01:24:09;10.40;67.40
16116;DHT22;8162;47.104;15.432;2024-03-22T01:27:09;10.40;67.80
16116;DHT22;8162;47.104;15.432;2024-03-22T01:30:10;10.40;67.70
16116;DHT22;8162;47.104;15.432;2024-03-22T01:33:11;10.40;67.70
16116;DHT22;8162;47.104;15.432;2024-03-22T01:36:12;10.40;67.10
16116;DHT22;8162;47.104;15.432;2024-03-22T01:39:13;10.40;66.80
16116;DHT22;8162;47.104;15.432;2024-03-22T01:42:14;10.40;67.00
16116;DHT22;8162;47.104;15.432;2024-03-22T01:45:15;10.40;67.20
16116;DHT22;8162;47.104;15.432;2024-03-22T01:48:16;10.40;66.80
16116;DHT22;8162;47.104;15.432;2024-03-22T01:51:18;10.40;66.30
16116;DHT22;8162;47.104;15.432;2024-03-22T01:54:20;10.50;66.80
16116;DHT22;8162;47.104;15.432;2024-03-22T01:57:21;10.50;66.00
16116;DHT22;8162;47.104;15.432;2024-03-22T02:00:21;10.50;65.00
16116;DHT22;8162;47.104;15.432;2024-03-22T02:03:22;10.60;62.90
16116;DHT22;8162;47.104;15.432;2024-03-22T02:06:23;10.70;62.20
16116;DHT22;8162;47.104;15.432;2024-03-22T02:09:24;10.90;60.70
16116;DHT22;8162;47.104;15.432;2024-03-22T02:12:25;11.00;59.80
16116;DHT22;8162;47.104;15.432;2024-03-22T02:15:26;11.10;58.20
16116;DHT22;8162;47.104;15.432;2024-03-22T02:18:26;11.10;58.70
16116;DHT22;8162;47.104;15.432;2024-03-22T02:21:27;11.10;59.10
16116;DHT22;8162;47.104;15.432;2024-03-22T02:24:28;11.10;58.60
16116;DHT22;8162;47.104;15.432;2024-03-22T02:27:28;11.10;57.90
16116;DHT22;8162;47.104;15.432;2024-03-22T02:30:29;11.20;57.70
16116;DHT22;8162;47.104;15.432;2024-03-22T02:33:30;11.20;57.80
16116;DHT22;8162;47.104;15.432;2024-03-22T02:36:31;11.20;57.70
16116;DHT22;8162;47.104;15.432;2024-03-22T02:39:31;11.20;57.50
16116;DHT22;8162;47.104;15.432;2024-03-22T02:42:32;11.30;56.60
16116;DHT22;8162;47.104;15.432;2024-03-22T02:45:33;11.30;56.10
16116;DHT22;8162;47.104;15.432;2024-03-22T02:48:33;11.30;56.20
16116;DHT22;8162;47.104;15.432;2024-03-22T02:51:34;11.40;55.30
16116;DHT22;8162;47.104;15.432;2024-03-22T02:54:34;11.30;55.70
16116;DHT22;8162;47.104;15.432;2024-03-22T02:57:35;11.30;56.00
16116;DHT22;8162;47.104;15.432;2024-03-22T03:00:37;11.30;55.30
16116;DHT22;8162;47.104;15.432;2024-03-22T03:03:38;11.40;54.40
16116;DHT22;8162;47.104;15.432;2024-03-22T03:06:39;11.40;54.40
16116;DHT22;8162;47.104;15.432;2024-03-22T03:09:40;11.40;54.30
16116;DHT22;8162;47.104;15.432;2024-03-22T03:12:40;11.40;54.40
16116;DHT22;8162;47.104;15.432;2024-03-22T03:15:41;11.40;54.50
16116;DHT22;8162;47.104;15.432;2024-03-22T03:18:41;11.40;54.00
16116;DHT22;8162;47.104;15.432;2024-03-22T03:21:42;11.40;54.00
16116;DHT22;8162;47.104;15.432;2024-03-22T03:24:44;11.30;54.10
16116;DHT22;8162;47.104;15.432;2024-03-22T03:27:44;11.40;53.70
16116;DHT22;8162;47.104;15.432;2024-03-22T03:30:45;11.40;54.00
16116;DHT22;8162;47.104;15.432;2024-03-22T03:33:46;11.30;53.60
16116;DHT22;8162;47.104;15.432;2024-03-22T03:36:46;11.30;53.60
16116;DHT22;8162;47.104;15.432;2024-03-22T03:39:47;11.30;53.30
16116;DHT22;8162;47.104;15.432;2024-03-22T03:42:48;11.30;53.50
16116;DHT22;8162;47.104;15.432;2024-03-22T03:45:48;11.30;54.20
16116;DHT22;8162;47.104;15.432;2024-03-22T03:48:49;11.20;53.70
16116;DHT22;8162;47.104;15.432;2024-03-22T03:51:50;11.20;53.70
16116;DHT22;8162;47.104;15.432;2024-03-22T03:54:50;11.20;53.50
16116;DHT22;8162;47.104;15.432;2024-03-22T03:57:51;11.10;53.70
16116;DHT22;8162;47.104;15.432;2024-03-22T04:00:52;11.20;53.90
16116;DHT22;8162;47.104;15.432;2024-03-22T04:03:52;11.10;53.80
16116;DHT22;8162;47.104;15.432;2024-03-22T04:06:53;11.10;54.20
16116;DHT22;8162;47.104;15.432;2024-03-22T04:09:53;11.10;54.20
16116;DHT22;8162;47.104;15.432;2024-03-22T04:12:54;11.00;54.70
16116;DHT22;8162;47.104;15.432;2024-03-22T04:15:58;11.00;54.30
16116;DHT22;8162;47.104;15.432;2024-03-22T04:18:59;11.00;54.50
16116;DHT22;8162;47.104;15.432;2024-03-22T04:22:00;10.90;54.60
16116;DHT22;8162;47.104;15.432;2024-03-22T04:25:00;10.90;54.70
16116;DHT22;8162;47.104;15.432;2024-03-22T04:28:01;10.80;54.70
16116;DHT22;8162;47.104;15.432;2024-03-22T04:31:04;10.80;54.80
16116;DHT22;8162;47.104;15.432;2024-03-22T04:34:05;10.80;54.90
16116;DHT22;8162;47.104;15.432;2024-03-22T04:37:08;10.70;54.70
16116;DHT22;8162;47.104;15.432;2024-03-22T04:40:10;10.70;55.00
16116;DHT22;8162;47.104;15.432;2024-03-22T04:43:10;10.60;55.30
16116;DHT22;8162;47.104;15.432;2024-03-22T04:46:11;10.60;55.30
16116;DHT22;8162;47.104;15.432;2024-03-22T04:49:13;10.50;55.60
16116;DHT22;8162;47.104;15.432;2024-03-22T04:52:13;10.50;55.60
16116;DHT22;8162;47.104;15.432;2024-03-22T04:55:14;10.40;55.80
16116;DHT22;8162;47.104;15.432;2024-03-22T04:58:19;10.50;56.70
16116;DHT22;8162;47.104;15.432;2024-03-22T05:01:20;10.50;56.10
16116;DHT22;8162;47.104;15.432;2024-03-22T05:04:20;10.40;56.40
16116;DHT22;8162;47.104;15.432;2024-03-22T05:07:21;10.40;56.50
16116;DHT22;8162;47.104;15.432;2024-03-22T05:10:22;10.30;56.80
16116;DHT22;8162;47.104;15.432;2024-03-22T05:13:22;10.30;57.10
16116;DHT22;8162;47.104;15.432;2024-03-22T05:16:23;10.20;57.60
16116;DHT22;8162;47.104;15.432;2024-03-22T05:19:24;10.20;58.30
16116;DHT22;8162;47.104;15.432;2024-03-22T05:22:24;10.10;58.20
16116;DHT22;8162;47.104;15.432;2024-03-22T05:25:25;10.00;58.30
16116;DHT22;8162;47.104;15.432;2024-03-22T05:28:26;10.00;58.50
16116;DHT22;8162;47.104;15.432;2024-03-22T05:31:27;10.00;59.00
16116;DHT22;8162;47.104;15.432;2024-03-22T05:34:27;10.00;59.50
16116;DHT22;8162;47.104;15.432;2024-03-22T05:37:28;10.00;59.60
16116;DHT22;8162;47.104;15.432;2024-03-22T05:40:29;9.90;59.40
16116;DHT22;8162;47.104;15.432;2024-03-22T05:43:29;9.80;59.90
16116;DHT22;8162;47.104;15.432;2024-03-22T05:46:31;9.80;60.50
16116;DHT22;8162;47.104;15.432;2024-03-22T05:49:31;9.80;60.20
16116;DHT22;8162;47.104;15.432;2024-03-22T05:52:33;9.80;60.40
16116;DHT22;8162;47.104;15.432;2024-03-22T05:55:34;9.80;60.50
16116;DHT22;8162;47.104;15.432;2024-03-22T05:58:35;9.80;60.80
16116;DHT22;8162;47.104;15.432;2024-03-22T06:01:36;9.70;61.20
16116;DHT22;8162;47.104;15.432;2024-03-22T06:04:38;9.80;60.60
16116;DHT22;8162;47.104;15.432;2024-03-22T06:07:39;9.80;60.40
16116;DHT22;8162;47.104;15.432;2024-03-22T06:10:42;9.90;60.20
16116;DHT22;8162;47.104;15.432;2024-03-22T06:13:43;10.00;59.70
16116;DHT22;8162;47.104;15.432;2024-03-22T06:16:43;10.00;60.30
16116;DHT22;8162;47.104;15.432;2024-03-22T06:19:44;10.00;61.50
16116;DHT22;8162;47.104;15.432;2024-03-22T06:22:45;9.80;61.40
16116;DHT22;8162;47.104;15.432;2024-03-22T06:25:52;9.90;61.30
16116;DHT22;8162;47.104;15.432;2024-03-22T06:28:53;9.90;61.80
16116;DHT22;8162;47.104;15.432;2024-03-22T06:31:54;10.00;60.60
16116;DHT22;8162;47.104;15.432;2024-03-22T06:34:54;10.00;60.60
16116;DHT22;8162;47.104;15.432;2024-03-22T06:37:55;10.00;61.00
16116;DHT22;8162;47.104;15.432;2024-03-22T06:40:56;10.00;61.80
16116;DHT22;8162;47.104;15.432;2024-03-22T06:43:57;10.00;62.10
16116;DHT22;8162;47.104;15.432;2024-03-22T06:47:01;10.00;62.50
16116;DHT22;8162;47.104;15.432;2024-03-22T06:50:02;10.00;62.40
16116;DHT22;8162;47.104;15.432;2024-03-22T06:53:04;10.00;62.90
16116;DHT22;8162;47.104;15.432;2024-03-22T06:56:05;10.10;62.80
16116;DHT22;8162;47.104;15.432;2024-03-22T06:59:05;10.10;62.70
16116;DHT22;8162;47.104;15.432;2024-03-22T07:02:06;10.10;63.00
16116;DHT22;8162;47.104;15.432;2024-03-22T07:05:07;10.10;62.70
16116;DHT22;8162;47.104;15.432;2024-03-22T07:08:08;10.10;62.70
16116;DHT22;8162;47.104;15.432;2024-03-22T07:11:09;10.20;62.50
16116;DHT22;8162;47.104;15.432;2024-03-22T07:14:10;10.30;61.20
16116;DHT22;8162;47.104;15.432;2024-03-22T07:17:10;10.40;59.70
16116;DHT22;8162;47.104;15.432;2024-03-22T07:20:11;10.60;59.20
16116;DHT22;8162;47.104;15.432;2024-03-22T07:23:12;10.80;58.70
16116;DHT22;8162;47.104;15.432;2024-03-22T07:26:13;10.90;58.90
16116;DHT22;8162;47.104;15.432;2024-03-22T07:29:13;10.90;58.60
16116;DHT22;8162;47.104;15.432;2024-03-22T07:32:14;11.00;59.00
16116;DHT22;8162;47.104;15.432;2024-03-22T07:35:15;11.10;58.10
16116;DHT22;8162;47.104;15.432;2024-03-22T07:38:15;11.30;57.50
16116;DHT22;8162;47.104;15.432;2024-03-22T07:41:16;11.40;57.40
16116;DHT22;8162;47.104;15.432;2024-03-22T07:44:17;11.50;56.50
16116;DHT22;8162;47.104;15.432;2024-03-22T07:47:17;11.70;56.40
16116;DHT22;8162;47.104;15.432;2024-03-22T07:50:18;11.90;55.30
16116;DHT22;8162;47.104;15.432;2024-03-22T07:53:19;11.90;54.90
16116;DHT22;8162;47.104;15.432;2024-03-22T07:56:19;12.10;54.30
16116;DHT22;8162;47.104;15.432;2024-03-22T07:59:20;12.10;54.40
16116;DHT22;8162;47.104;15.432;2024-03-22T08:02:20;12.30;53.40
16116;DHT22;8162;47.104;15.432;2024-03-22T08:05:21;12.50;53.00
16116;DHT22;8162;47.104;15.432;2024-03-22T08:08:22;12.50;52.30
16116;DHT22;8162;47.104;15.432;2024-03-22T08:11:23;12.60;51.50
16116;DHT22;8162;47.104;15.432;2024-03-22T08:14:23;12.70;50.20
16116;DHT22;8162;47.104;15.432;2024-03-22T08:17:24;12.70;50.10
16116;DHT22;8162;47.104;15.432;2024-03-22T08:20:25;12.80;50.10
16116;DHT22;8162;47.104;15.432;2024-03-22T08:23:26;13.00;48.80
16116;DHT22;8162;47.104;15.432;2024-03-22T08:26:26;13.00;48.70
16116;DHT22;8162;47.104;15.432;2024-03-22T08:29:27;13.00;48.00
16116;DHT22;8162;47.104;15.432;2024-03-22T08:32:28;13.10;47.80
16116;DHT22;8162;47.104;15.432;2024-03-22T08:35:29;13.10;48.20
16116;DHT22;8162;47.104;15.432;2024-03-22T08:38:31;13.10;48.30
16116;DHT22;8162;47.104;15.432;2024-03-22T08:41:32;13.40;47.50
16116;DHT22;8162;47.104;15.432;2024-03-22T08:44:32;13.30;47.40
16116;DHT22;8162;47.104;15.432;2024-03-22T08:47:33;13.30;48.00
16116;DHT22;8162;47.104;15.432;2024-03-22T08:50:34;13.40;46.70
16116;DHT22;8162;47.104;15.432;2024-03-22T08:53:35;13.40;46.50
16116;DHT22;8162;47.104;15.432;2024-03-22T08:56:35;13.40;46.10
16116;DHT22;8162;47.104;15.432;2024-03-22T08:59:37;13.50;46.10
16116;DHT22;8162;47.104;15.432;2024-03-22T09:02:38;13.50;45.10
16116;DHT22;8162;47.104;15.432;2024-03-22T09:05:39;13.60;45.20
16116;DHT22;8162;47.104;15.432;2024-03-22T09:08:39;13.70;44.80
16116;DHT22;8162;47.104;15.432;2024-03-22T09:11:40;13.70;44.70
16116;DHT22;8162;47.104;15.432;2024-03-22T09:14:41;13.70;44.80
16116;DHT22;8162;47.104;15.432;2024-03-22T09:17:42;13.70;44.70
16116;DHT22;8162;47.104;15.432;2024-03-22T09:20:43;13.70;44.10
16116;DHT22;8162;47.104;15.432;2024-03-22T09:23:43;13.70;43.70
16116;DHT22;8162;47.104;15.432;2024-03-22T09:26:44;13.80;43.60
16116;DHT22;8162;47.104;15.432;2024-03-22T09:29:45;13.90;43.50
16116;DHT22;8162;47.104;15.432;2024-03-22T09:32:45;14.10;43.40
16116;DHT22;8162;47.104;15.432;2024-03-22T09:35:46;14.20;42.40
16116;DHT22;8162;47.104;15.432;2024-03-22T09:38:47;14.20;42.60
16116;DHT22;8162;47.104;15.432;2024-03-22T09:41:48;14.10;43.20
16116;DHT22;8162;47.104;15.432;2024-03-22T09:44:50;14.10;42.80
16116;DHT22;8162;47.104;15.432;2024-03-22T09:47:52;14.20;42.90
16116;DHT22;8162;47.104;15.432;2024-03-22T09:50:56;14.20;42.20
16116;DHT22;8162;47.104;15.432;2024-03-22T09:53:56;14.20;42.20
16116;DHT22;8162;47.104;15.432;2024-03-22T09:56:58;14.30;42.10
16116;DHT22;8162;47.104;15.432;2024-03-22T09:59:59;14.20;41.20
16116;DHT22;8162;47.104;15.432;2024-03-22T10:03:00;14.20;42.30
16116;DHT22;8162;47.104;15.432;2024-03-22T10:06:01;14.30;42.70
16116;DHT22;8162;47.104;15.432;2024-03-22T10:09:02;14.50;44.00
16116;DHT22;8162;47.104;15.432;2024-03-22T10:12:05;14.60;43.50
16116;DHT22;8162;47.104;15.432;2024-03-22T10:15:06;14.60;43.60
16116;DHT22;8162;47.104;15.432;2024-03-22T10:18:10;14.80;43.00
16116;DHT22;8162;47.104;15.432;2024-03-22T10:21:11;15.00;41.40
16116;DHT22;8162;47.104;15.432;2024-03-22T10:24:11;15.00;41.10
16116;DHT22;8162;47.104;15.432;2024-03-22T10:27:13;15.00;40.90
16116;DHT22;8162;47.104;15.432;2024-03-22T10:30:15;15.00;42.50
16116;DHT22;8162;47.104;15.432;2024-03-22T10:33:22;15.20;43.70
16116;DHT22;8162;47.104;15.432;2024-03-22T10:36:24;15.50;42.60
16116;DHT22;8162;47.104;15.432;2024-03-22T10:39:26;15.60;41.10
16116;DHT22;8162;47.104;15.432;2024-03-22T10:42:27;15.60;41.40
16116;DHT22;8162;47.104;15.432;2024-03-22T10:45:29;15.80;41.60
16116;DHT22;8162;47.104;15.432;2024-03-22T10:48:31;15.80;40.20
16116;DHT22;8162;47.104;15.432;2024-03-22T10:51:33;15.80;39.70
16116;DHT22;8162;47.104;15.432;2024-03-22T10:54:37;15.90;40.00
16116;DHT22;8162;47.104;15.432;2024-03-22T10:57:39;16.10;40.40
16116;DHT22;8162;47.104;15.432;2024-03-22T11:00:42;16.40;40.00
16116;DHT22;8162;47.104;15.432;2024-03-22T11:03:46;16.60;39.30
16116;DHT22;8162;47.104;15.432;2024-03-22T11:40:11;18.10;36.00
16116;DHT22;8162;47.104;15.432;2024-03-22T11:43:13;18.00;36.40
16116;DHT22;8162;47.104;15.432;2024-03-22T11:46:17;18.10;37.00
16116;DHT22;8162;47.104;15.432;2024-03-22T11:49:18;18.30;35.60
16116;DHT22;8162;47.104;15.432;2024-03-22T11:52:26;18.60;35.50
16116;DHT22;8162;47.104;15.432;2024-03-22T11:55:27;18.70;36.10
16116;DHT22;8162;47.104;15.432;2024-03-22T11:58:29;18.80;35.60
16116;DHT22;8162;47.104;15.432;2024-03-22T12:01:29;18.90;35.80
16116;DHT22;8162;47.104;15.432;2024-03-22T12:04:30;18.70;34.90
16116;DHT22;8162;47.104;15.432;2024-03-22T12:07:31;18.90;35.50
16116;DHT22;8162;47.104;15.432;2024-03-22T12:10:32;19.10;35.10
16116;DHT22;8162;47.104;15.432;2024-03-22T12:52:51;22.60;30.70
16116;DHT22;8162;47.104;15.432;2024-03-22T12:55:52;23.00;31.20
16116;DHT22;8162;47.104;15.432;2024-03-22T13:01:53;21.70;29.60
16116;DHT22;8162;47.104;15.432;2024-03-22T13:04:54;21.50;30.60
16116;DHT22;8162;47.104;15.432;2024-03-22T13:07:55;21.90;30.10
16116;DHT22;8162;47.104;15.432;2024-03-22T13:10:56;22.40;29.50
16116;DHT22;8162;47.104;15.432;2024-03-22T13:13:56;22.60;30.50
16116;DHT22;8162;47.104;15.432;2024-03-22T13:19:58;23.80;29.30
16116;DHT22;8162;47.104;15.432;2024-03-22T13:23:00;24.90;27.50
16116;DHT22;8162;47.104;15.432;2024-03-22T13:26:04;13.50;26.40
16116;DHT22;8162;47.104;15.432;2024-03-22T13:29:07;9.20;25.20
16116;DHT22;8162;47.104;15.432;2024-03-22T13:35:09;-27.40;23.20
16116;DHT22;8162;47.104;15.432;2024-03-22T14:29:42;-22.90;21.60
16116;DHT22;8162;47.104;15.432;2024-03-22T14:32:43;24.00;50.00
16116;DHT22;8162;47.104;15.432;2024-03-22T14:41:46;8.80;26.10
16116;DHT22;8162;47.104;15.432;2024-03-22T14:47:48;27.80;27.10
16116;DHT22;8162;47.104;15.432;2024-03-22T14:56:55;27.80;25.40
16116;DHT22;8162;47.104;15.432;2024-03-22T15:09:00;-15.70;20.40
16116;DHT22;8162;47.104;15.432;2024-03-22T15:12:05;6.60;23.40
16116;DHT22;8162;47.104;15.432;2024-03-22T15:15:06;5.90;22.60
16116;DHT22;8162;47.104;15.432;2024-03-22T15:42:21;27.00;28.60
16116;DHT22;8162;47.104;15.432;2024-03-22T15:45:22;27.00;28.50
16116;DHT22;8162;47.104;15.432;2024-03-22T15:48:23;27.00;28.40
16116;DHT22;8162;47.104;15.432;2024-03-22T15:51:24;26.60;27.00
16116;DHT22;8162;47.104;15.432;2024-03-22T16:00:28;25.50;29.20
16116;DHT22;8162;47.104;15.432;2024-03-22T16:03:29;24.80;29.70
16116;DHT22;8162;47.104;15.432;2024-03-22T16:06:30;24.20;30.30
16116;DHT22;8162;47.104;15.432;2024-03-22T16:09:31;24.20;30.20
16116;DHT22;8162;47.104;15.432;2024-03-22T16:12:32;24.00;31.50
16116;DHT22;8162;47.104;15.432;2024-03-22T16:15:32;23.70;31.40
16116;DHT22;8162;47.104;15.432;2024-03-22T16:18:33;23.10;32.70
16116;DHT22;8162;47.104;15.432;2024-03-22T16:21:34;22.70;33.40
16116;DHT22;8162;47.104;15.432;2024-03-22T16:24:35;22.50;33.20
16116;DHT22;8162;47.104;15.432;2024-03-22T16:27:35;21.70;34.30
16116;DHT22;8162;47.104;15.432;2024-03-22T16:30:36;21.10;35.00
16116;DHT22;8162;47.104;15.432;2024-03-22T16:33:37;17.60;35.10
16116;DHT22;8162;47.104;15.432;2024-03-22T16:36:37;24.00;50.00
16116;DHT22;8162;47.104;15.432;2024-03-22T16:39:38;18.90;37.50
16116;DHT22;8162;47.104;15.432;2024-03-22T16:42:48;17.20;38.50
16116;DHT22;8162;47.104;15.432;2024-03-22T16:45:49;16.10;38.60
16116;DHT22;8162;47.104;15.432;2024-03-22T16:48:50;14.50;38.20
16116;DHT22;8162;47.104;15.432;2024-03-22T16:51:51;17.50;38.10
16116;DHT22;8162;47.104;15.432;2024-03-22T16:54:51;4.70;38.00
16116;DHT22;8162;47.104;15.432;2024-03-22T16:57:52;0.40;38.10
16116;DHT22;8162;47.104;15.432;2024-03-22T17:00:54;-1.30;37.60
16116;DHT22;8162;47.104;15.432;2024-03-22T17:03:54;-2.90;37.80
16116;DHT22;8162;47.104;15.432;2024-03-22T17:06:55;18.20;38.70
16116;DHT22;8162;47.104;15.432;2024-03-22T17:09:56;17.90;40.30
16116;DHT22;8162;47.104;15.432;2024-03-22T17:12:57;17.80;41.10
16116;DHT22;8162;47.104;15.432;2024-03-22T17:15:57;17.60;41.80
16116;DHT22;8162;47.104;15.432;2024-03-22T17:18:59;17.50;42.40
16116;DHT22;8162;47.104;15.432;2024-03-22T17:22:00;17.40;42.40
16116;DHT22;8162;47.104;15.432;2024-03-22T17:25:01;17.20;43.00
16116;DHT22;8162;47.104;15.432;2024-03-22T17:28:02;17.00;43.30
16116;DHT22;8162;47.104;15.432;2024-03-22T17:31:03;16.90;43.70
16116;DHT22;8162;47.104;15.432;2024-03-22T17:34:03;16.70;44.30
16116;DHT22;8162;47.104;15.432;2024-03-22T17:37:05;16.60;44.50
16116;DHT22;8162;47.104;15.432;2024-03-22T17:40:06;16.40;44.80
16116;DHT22;8162;47.104;15.432;2024-03-22T17:43:07;16.30;44.70
16116;DHT22;8162;47.104;15.432;2024-03-22T17:46:08;16.20;44.70
16116;DHT22;8162;47.104;15.432;2024-03-22T17:52:10;24.00;50.00
16116;DHT22;8162;47.104;15.432;2024-03-22T17:55:11;15.70;46.10
16116;DHT22;8162;47.104;15.432;2024-03-22T17:58:12;15.60;46.30
16116;DHT22;8162;47.104;15.432;2024-03-22T18:01:13;15.50;46.60
16116;DHT22;8162;47.104;15.432;2024-03-22T18:04:14;15.40;46.70
16116;DHT22;8162;47.104;15.432;2024-03-22T18:07:15;15.20;47.90
16116;DHT22;8162;47.104;15.432;2024-03-22T18:10:16;15.10;47.90
16116;DHT22;8162;47.104;15.432;2024-03-22T18:13:16;15.00;47.70
16116;DHT22;8162;47.104;15.432;2024-03-22T18:16:17;14.90;48.30
16116;DHT22;8162;47.104;15.432;2024-03-22T18:19:18;14.80;48.50
16116;DHT22;8162;47.104;15.432;2024-03-22T18:22:19;14.70;48.90
16116;DHT22;8162;47.104;15.432;2024-03-22T18:25:20;14.60;49.30
16116;DHT22;8162;47.104;15.432;2024-03-22T18:28:21;14.50;49.40
16116;DHT22;8162;47.104;15.432;2024-03-22T18:31:21;14.40;49.80
16116;DHT22;8162;47.104;15.432;2024-03-22T18:34:23;14.20;49.80
16116;DHT22;8162;47.104;15.432;2024-03-22T18:37:24;14.20;49.70
16116;DHT22;8162;47.104;15.432;2024-03-22T18:40:24;13.90;50.20
16116;DHT22;8162;47.104;15.432;2024-03-22T18:43:25;13.90;50.80
16116;DHT22;8162;47.104;15.432;2024-03-22T18:46:28;13.70;50.70
16116;DHT22;8162;47.104;15.432;2024-03-22T18:49:29;13.70;50.90
16116;DHT22;8162;47.104;15.432;2024-03-22T18:52:31;13.60;51.20
16116;DHT22;8162;47.104;15.432;2024-03-22T18:55:32;13.60;50.90
16116;DHT22;8162;47.104;15.432;2024-03-22T18:58:33;13.50;51.50
16116;DHT22;8162;47.104;15.432;2024-03-22T19:01:34;13.50;51.90
16116;DHT22;8162;47.104;15.432;2024-03-22T19:04:34;13.40;52.20
16116;DHT22;8162;47.104;15.432;2024-03-22T19:07:35;13.30;52.60
16116;DHT22;8162;47.104;15.432;2024-03-22T19:10:37;13.10;53.00
16116;DHT22;8162;47.104;15.432;2024-03-22T19:13:38;10.50;53.10
16116;DHT22;8162;47.104;15.432;2024-03-22T19:16:39;13.00;52.90
16116;DHT22;8162;47.104;15.432;2024-03-22T19:19:39;13.00;53.10
16116;DHT22;8162;47.104;15.432;2024-03-22T19:22:40;12.80;53.60
16116;DHT22;8162;47.104;15.432;2024-03-22T19:25:42;12.80;53.50
16116;DHT22;8162;47.104;15.432;2024-03-22T19:28:43;12.80;53.70
16116;DHT22;8162;47.104;15.432;2024-03-22T19:31:44;12.70;53.60
16116;DHT22;8162;47.104;15.432;2024-03-22T19:34:45;12.70;53.70
16116;DHT22;8162;47.104;15.432;2024-03-22T19:37:45;12.70;54.20
16116;DHT22;8162;47.104;15.432;2024-03-22T19:40:46;12.70;54.00
16116;DHT22;8162;47.104;15.432;2024-03-22T19:43:47;12.60;54.30
16116;DHT22;8162;47.104;15.432;2024-03-22T19:46:48;12.50;54.80
16116;DHT22;8162;47.104;15.432;2024-03-22T19:49:49;12.50;54.60
16116;DHT22;8162;47.104;15.432;2024-03-22T19:52:53;12.50;55.10
16116;DHT22;8162;47.104;15.432;2024-03-22T19:55:54;12.50;55.20
16116;DHT22;8162;47.104;15.432;2024-03-22T19:58:55;12.50;55.20
16116;DHT22;8162;47.104;15.432;2024-03-22T20:01:56;12.40;55.50
16116;DHT22;8162;47.104;15.432;2024-03-22T20:04:57;12.30;56.00
16116;DHT22;8162;47.104;15.432;2024-03-22T20:07:57;12.30;56.30
16116;DHT22;8162;47.104;15.432;2024-03-22T20:10:59;12.30;56.20
16116;DHT22;8162;47.104;15.432;2024-03-22T20:14:00;12.20;56.50
16116;DHT22;8162;47.104;15.432;2024-03-22T20:17:00;12.20;56.20
16116;DHT22;8162;47.104;15.432;2024-03-22T20:20:02;12.10;56.20
16116;DHT22;8162;47.104;15.432;2024-03-22T20:23:03;12.10;56.70
16116;DHT22;8162;47.104;15.432;2024-03-22T20:26:06;11.90;56.90
16116;DHT22;8162;47.104;15.432;2024-03-22T20:29:09;11.90;57.20
16116;DHT22;8162;47.104;15.432;2024-03-22T20:32:10;11.90;56.80
16116;DHT22;8162;47.104;15.432;2024-03-22T20:35:10;11.90;56.80
